Terminal Aerodrome Forecast
Issued by NWS Lake Charles, LA

Home | Current Version | Previous Version | Text Only | Print | Product List | Glossary On
Versions: 1 2 3 4 5 6 7 8 9 10 11 12 13 14
000
FTUS44 KLCH 041135
TAFARA
TAF
KARA 041135Z 0412/0512 16010KT 5SM -SHRA BR FEW005 BKN040
     FM041400 VRB05KT P6SM -SHRA OVC004
     FM041600 35010KT 5SM -SHRA BR OVC007
      TEMPO 0417/0421 2SM +SHRA OVC004
     FM050200 02012G18KT 5SM -SHRA BR OVC005=

USA.gov is the U.S. government's official web portal to all federal, state and local government web resources and services.